sensor_id;sensor_type;location;lat;lon;timestamp;temperature;humidity
39655;DHT22;25336;59.944;11.010;2023-12-28T00:01:25;-6.50;68.70
39655;DHT22;25336;59.944;11.010;2023-12-28T00:03:51;-6.40;68.80
39655;DHT22;25336;59.944;11.010;2023-12-28T00:06:16;-6.40;68.80
39655;DHT22;25336;59.944;11.010;2023-12-28T00:08:42;-6.10;69.00
39655;DHT22;25336;59.944;11.010;2023-12-28T00:11:08;-6.40;68.80
39655;DHT22;25336;59.944;11.010;2023-12-28T00:13:34;-6.40;68.90
39655;DHT22;25336;59.944;11.010;2023-12-28T00:16:00;-6.40;69.00
39655;DHT22;25336;59.944;11.010;2023-12-28T00:18:26;-6.40;69.10
39655;DHT22;25336;59.944;11.010;2023-12-28T00:20:52;-6.40;69.10
39655;DHT22;25336;59.944;11.010;2023-12-28T00:23:18;-6.30;69.20
39655;DHT22;25336;59.944;11.010;2023-12-28T00:25:45;-5.60;69.70
39655;DHT22;25336;59.944;11.010;2023-12-28T00:28:11;-6.30;69.20
39655;DHT22;25336;59.944;11.010;2023-12-28T00:30:37;-6.20;69.30
39655;DHT22;25336;59.944;11.010;2023-12-28T00:33:03;-5.70;69.70
39655;DHT22;25336;59.944;11.010;2023-12-28T00:35:29;-6.20;69.30
39655;DHT22;25336;59.944;11.010;2023-12-28T00:37:54;-6.20;69.40
39655;DHT22;25336;59.944;11.010;2023-12-28T00:40:20;-6.20;69.40
39655;DHT22;25336;59.944;11.010;2023-12-28T00:42:47;-6.20;69.30
39655;DHT22;25336;59.944;11.010;2023-12-28T00:45:13;-6.20;69.10
39655;DHT22;25336;59.944;11.010;2023-12-28T00:47:39;-6.20;69.00
39655;DHT22;25336;59.944;11.010;2023-12-28T00:50:05;-6.20;69.00
39655;DHT22;25336;59.944;11.010;2023-12-28T00:52:31;-6.20;69.00
39655;DHT22;25336;59.944;11.010;2023-12-28T00:54:57;-6.30;68.90
39655;DHT22;25336;59.944;11.010;2023-12-28T00:57:22;-5.00;69.80
39655;DHT22;25336;59.944;11.010;2023-12-28T00:59:48;-6.30;69.00
39655;DHT22;25336;59.944;11.010;2023-12-28T01:02:14;-6.20;69.20
39655;DHT22;25336;59.944;11.010;2023-12-28T01:04:39;-6.20;69.20
39655;DHT22;25336;59.944;11.010;2023-12-28T01:07:05;-6.20;69.30
39655;DHT22;25336;59.944;11.010;2023-12-28T01:09:31;-6.20;69.30
39655;DHT22;25336;59.944;11.010;2023-12-28T01:12:00;-6.10;69.40
39655;DHT22;25336;59.944;11.010;2023-12-28T01:14:26;-6.10;69.30
39655;DHT22;25336;59.944;11.010;2023-12-28T01:16:51;-6.10;69.40
39655;DHT22;25336;59.944;11.010;2023-12-28T01:19:17;-6.10;69.40
39655;DHT22;25336;59.944;11.010;2023-12-28T01:21:43;-6.10;69.50
39655;DHT22;25336;59.944;11.010;2023-12-28T01:24:09;-6.10;69.60
39655;DHT22;25336;59.944;11.010;2023-12-28T01:26:34;-6.00;69.50
39655;DHT22;25336;59.944;11.010;2023-12-28T01:29:00;-6.00;69.50
39655;DHT22;25336;59.944;11.010;2023-12-28T01:31:29;-5.90;69.60
39655;DHT22;25336;59.944;11.010;2023-12-28T01:33:55;-5.90;69.50
39655;DHT22;25336;59.944;11.010;2023-12-28T01:36:21;-5.90;69.50
39655;DHT22;25336;59.944;11.010;2023-12-28T01:38:47;-5.90;69.50
39655;DHT22;25336;59.944;11.010;2023-12-28T01:41:13;-5.80;70.30
39655;DHT22;25336;59.944;11.010;2023-12-28T01:43:41;-5.80;69.30
39655;DHT22;25336;59.944;11.010;2023-12-28T01:46:10;-5.20;69.70
39655;DHT22;25336;59.944;11.010;2023-12-28T01:48:37;-5.80;69.20
39655;DHT22;25336;59.944;11.010;2023-12-28T01:51:03;-5.80;69.20
39655;DHT22;25336;59.944;11.010;2023-12-28T01:53:29;-5.70;69.10
39655;DHT22;25336;59.944;11.010;2023-12-28T01:55:55;-5.70;69.00
39655;DHT22;25336;59.944;11.010;2023-12-28T01:58:22;-5.70;69.00
39655;DHT22;25336;59.944;11.010;2023-12-28T02:00:48;-5.70;68.90
39655;DHT22;25336;59.944;11.010;2023-12-28T02:03:15;-5.70;68.90
39655;DHT22;25336;59.944;11.010;2023-12-28T02:05:41;-5.70;69.00
39655;DHT22;25336;59.944;11.010;2023-12-28T02:08:07;-5.70;69.20
39655;DHT22;25336;59.944;11.010;2023-12-28T02:10:32;-5.70;69.30
39655;DHT22;25336;59.944;11.010;2023-12-28T02:12:58;-5.70;69.40
39655;DHT22;25336;59.944;11.010;2023-12-28T02:15:24;-5.70;69.60
39655;DHT22;25336;59.944;11.010;2023-12-28T02:17:55;-5.60;69.70
39655;DHT22;25336;59.944;11.010;2023-12-28T02:20:24;-5.60;69.80
39655;DHT22;25336;59.944;11.010;2023-12-28T02:22:50;-5.50;69.90
39655;DHT22;25336;59.944;11.010;2023-12-28T02:25:17;-4.80;70.30
39655;DHT22;25336;59.944;11.010;2023-12-28T02:27:47;-5.50;69.80
39655;DHT22;25336;59.944;11.010;2023-12-28T02:30:18;-5.50;69.70
39655;DHT22;25336;59.944;11.010;2023-12-28T02:35:23;-5.40;69.70
39655;DHT22;25336;59.944;11.010;2023-12-28T02:37:53;-5.40;69.60
39655;DHT22;25336;59.944;11.010;2023-12-28T02:40:19;-5.40;69.60
39655;DHT22;25336;59.944;11.010;2023-12-28T02:42:46;-5.40;69.60
39655;DHT22;25336;59.944;11.010;2023-12-28T02:45:12;-4.20;70.40
39655;DHT22;25336;59.944;11.010;2023-12-28T02:47:38;-4.50;70.20
39655;DHT22;25336;59.944;11.010;2023-12-28T02:50:04;-5.40;69.70
39655;DHT22;25336;59.944;11.010;2023-12-28T02:52:30;-5.40;69.70
39655;DHT22;25336;59.944;11.010;2023-12-28T02:54:55;-5.40;69.70
39655;DHT22;25336;59.944;11.010;2023-12-28T02:57:21;-4.80;70.10
39655;DHT22;25336;59.944;11.010;2023-12-28T02:59:47;-5.40;69.80
39655;DHT22;25336;59.944;11.010;2023-12-28T03:02:13;-5.40;69.80
39655;DHT22;25336;59.944;11.010;2023-12-28T03:04:38;-5.30;70.00
39655;DHT22;25336;59.944;11.010;2023-12-28T03:07:05;-5.30;70.00
39655;DHT22;25336;59.944;11.010;2023-12-28T03:09:32;-4.20;70.80
39655;DHT22;25336;59.944;11.010;2023-12-28T03:12:00;-5.20;70.40
39655;DHT22;25336;59.944;11.010;2023-12-28T03:14:26;-5.20;70.60
39655;DHT22;25336;59.944;11.010;2023-12-28T03:16:51;-5.10;70.90
39655;DHT22;25336;59.944;11.010;2023-12-28T03:19:17;-4.10;71.80
39655;DHT22;25336;59.944;11.010;2023-12-28T03:21:43;-5.10;71.40
39655;DHT22;25336;59.944;11.010;2023-12-28T03:24:09;-5.10;71.40
39655;DHT22;25336;59.944;11.010;2023-12-28T03:26:40;-5.00;71.50
39655;DHT22;25336;59.944;11.010;2023-12-28T03:29:07;-3.90;72.50
39655;DHT22;25336;59.944;11.010;2023-12-28T03:31:33;-4.90;71.90
39655;DHT22;25336;59.944;11.010;2023-12-28T03:33:59;-4.80;71.90
39655;DHT22;25336;59.944;11.010;2023-12-28T03:36:25;-4.80;71.80
39655;DHT22;25336;59.944;11.010;2023-12-28T03:38:51;-4.70;71.70
39655;DHT22;25336;59.944;11.010;2023-12-28T03:41:20;-3.80;72.20
39655;DHT22;25336;59.944;11.010;2023-12-28T03:43:46;-4.60;71.60
39655;DHT22;25336;59.944;11.010;2023-12-28T03:46:12;-4.60;71.50
39655;DHT22;25336;59.944;11.010;2023-12-28T03:48:39;-4.60;71.30
39655;DHT22;25336;59.944;11.010;2023-12-28T03:51:05;-4.50;71.30
39655;DHT22;25336;59.944;11.010;2023-12-28T03:53:31;-3.50;71.80
39655;DHT22;25336;59.944;11.010;2023-12-28T03:56:00;-4.50;71.20
39655;DHT22;25336;59.944;11.010;2023-12-28T03:58:26;-4.50;71.80
39655;DHT22;25336;59.944;11.010;2023-12-28T04:00:52;-4.50;70.90
39655;DHT22;25336;59.944;11.010;2023-12-28T04:03:18;-4.50;70.80
39655;DHT22;25336;59.944;11.010;2023-12-28T04:05:44;-4.50;70.70
39655;DHT22;25336;59.944;11.010;2023-12-28T04:08:10;-4.50;70.60
39655;DHT22;25336;59.944;11.010;2023-12-28T04:10:36;-4.50;70.80
39655;DHT22;25336;59.944;11.010;2023-12-28T04:13:04;-4.40;70.90
39655;DHT22;25336;59.944;11.010;2023-12-28T04:15:30;-4.50;70.80
39655;DHT22;25336;59.944;11.010;2023-12-28T04:17:57;-4.50;71.10
39655;DHT22;25336;59.944;11.010;2023-12-28T04:20:23;-4.50;71.20
39655;DHT22;25336;59.944;11.010;2023-12-28T04:22:48;-4.50;71.10
39655;DHT22;25336;59.944;11.010;2023-12-28T04:25:14;-4.40;71.30
39655;DHT22;25336;59.944;11.010;2023-12-28T04:27:42;-4.40;71.30
39655;DHT22;25336;59.944;11.010;2023-12-28T04:30:11;-3.20;72.10
39655;DHT22;25336;59.944;11.010;2023-12-28T04:32:38;-4.40;71.30
39655;DHT22;25336;59.944;11.010;2023-12-28T04:35:03;-4.40;71.30
39655;DHT22;25336;59.944;11.010;2023-12-28T04:37:29;-4.30;71.30
39655;DHT22;25336;59.944;11.010;2023-12-28T04:39:57;-4.30;71.10
39655;DHT22;25336;59.944;11.010;2023-12-28T04:42:22;-3.30;71.60
39655;DHT22;25336;59.944;11.010;2023-12-28T04:44:48;-4.30;71.10
39655;DHT22;25336;59.944;11.010;2023-12-28T04:47:14;-4.40;71.00
39655;DHT22;25336;59.944;11.010;2023-12-28T04:49:39;-3.20;71.80
39655;DHT22;25336;59.944;11.010;2023-12-28T04:52:05;-4.20;71.30
39655;DHT22;25336;59.944;11.010;2023-12-28T04:54:31;-4.20;71.30
39655;DHT22;25336;59.944;11.010;2023-12-28T04:56:58;-4.20;71.50
39655;DHT22;25336;59.944;11.010;2023-12-28T04:59:24;-4.20;71.50
39655;DHT22;25336;59.944;11.010;2023-12-28T05:01:50;-3.80;71.70
39655;DHT22;25336;59.944;11.010;2023-12-28T05:04:15;-4.20;71.60
39655;DHT22;25336;59.944;11.010;2023-12-28T05:06:41;-4.20;71.50
39655;DHT22;25336;59.944;11.010;2023-12-28T05:09:07;-4.20;71.50
39655;DHT22;25336;59.944;11.010;2023-12-28T05:11:32;-4.10;71.60
39655;DHT22;25336;59.944;11.010;2023-12-28T05:13:58;-4.10;71.60
39655;DHT22;25336;59.944;11.010;2023-12-28T05:16:23;-4.10;71.80
39655;DHT22;25336;59.944;11.010;2023-12-28T05:18:49;-4.10;71.70
39655;DHT22;25336;59.944;11.010;2023-12-28T05:21:16;-4.00;71.80
39655;DHT22;25336;59.944;11.010;2023-12-28T05:23:41;-4.00;72.00
39655;DHT22;25336;59.944;11.010;2023-12-28T05:26:07;-4.00;71.90
39655;DHT22;25336;59.944;11.010;2023-12-28T05:28:33;-3.70;72.20
39655;DHT22;25336;59.944;11.010;2023-12-28T05:30:58;-3.90;72.10
39655;DHT22;25336;59.944;11.010;2023-12-28T05:33:25;-3.90;72.30
39655;DHT22;25336;59.944;11.010;2023-12-28T05:35:51;-3.80;72.30
39655;DHT22;25336;59.944;11.010;2023-12-28T05:38:17;-3.80;72.50
39655;DHT22;25336;59.944;11.010;2023-12-28T05:40:43;-3.70;72.50
39655;DHT22;25336;59.944;11.010;2023-12-28T05:43:10;-3.70;72.50
39655;DHT22;25336;59.944;11.010;2023-12-28T05:45:36;-3.60;72.60
39655;DHT22;25336;59.944;11.010;2023-12-28T05:48:02;-3.60;72.70
39655;DHT22;25336;59.944;11.010;2023-12-28T05:50:28;-3.50;72.80
39655;DHT22;25336;59.944;11.010;2023-12-28T05:52:54;-3.50;72.80
39655;DHT22;25336;59.944;11.010;2023-12-28T05:55:20;-3.40;72.70
39655;DHT22;25336;59.944;11.010;2023-12-28T05:57:46;-3.40;72.70
39655;DHT22;25336;59.944;11.010;2023-12-28T06:00:13;-3.30;72.90
39655;DHT22;25336;59.944;11.010;2023-12-28T06:02:40;-3.30;73.00
39655;DHT22;25336;59.944;11.010;2023-12-28T06:05:06;-3.20;73.10
39655;DHT22;25336;59.944;11.010;2023-12-28T06:07:32;-2.60;73.40
39655;DHT22;25336;59.944;11.010;2023-12-28T06:09:58;-2.20;73.90
39655;DHT22;25336;59.944;11.010;2023-12-28T06:12:23;-3.00;73.40
39655;DHT22;25336;59.944;11.010;2023-12-28T06:14:49;-3.00;73.40
39655;DHT22;25336;59.944;11.010;2023-12-28T06:17:15;-2.90;73.40
39655;DHT22;25336;59.944;11.010;2023-12-28T06:19:41;-2.80;73.40
39655;DHT22;25336;59.944;11.010;2023-12-28T06:22:07;-2.60;73.50
39655;DHT22;25336;59.944;11.010;2023-12-28T06:24:33;-2.70;73.40
39655;DHT22;25336;59.944;11.010;2023-12-28T06:27:02;-2.30;73.40
39655;DHT22;25336;59.944;11.010;2023-12-28T06:29:31;-2.60;73.20
39655;DHT22;25336;59.944;11.010;2023-12-28T06:31:57;-1.40;74.00
39655;DHT22;25336;59.944;11.010;2023-12-28T06:34:23;-2.50;73.30
39655;DHT22;25336;59.944;11.010;2023-12-28T06:36:48;-2.50;73.20
39655;DHT22;25336;59.944;11.010;2023-12-28T06:39:14;-2.50;73.20
39655;DHT22;25336;59.944;11.010;2023-12-28T06:41:40;-2.20;73.30
39655;DHT22;25336;59.944;11.010;2023-12-28T06:44:05;-2.40;73.10
39655;DHT22;25336;59.944;11.010;2023-12-28T06:46:31;-2.40;73.10
39655;DHT22;25336;59.944;11.010;2023-12-28T06:48:57;-2.40;73.20
39655;DHT22;25336;59.944;11.010;2023-12-28T06:51:24;-2.40;73.00
39655;DHT22;25336;59.944;11.010;2023-12-28T06:53:50;-2.90;72.80
39655;DHT22;25336;59.944;11.010;2023-12-28T06:56:16;-2.30;73.10
39655;DHT22;25336;59.944;11.010;2023-12-28T06:58:42;-1.50;73.70
39655;DHT22;25336;59.944;11.010;2023-12-28T07:01:08;-2.30;73.20
39655;DHT22;25336;59.944;11.010;2023-12-28T07:03:34;-2.30;73.20
39655;DHT22;25336;59.944;11.010;2023-12-28T07:06:01;-2.20;73.30
39655;DHT22;25336;59.944;11.010;2023-12-28T07:08:27;-1.40;73.70
39655;DHT22;25336;59.944;11.010;2023-12-28T07:10:53;-1.30;73.80
39655;DHT22;25336;59.944;11.010;2023-12-28T07:13:18;-2.20;73.20
39655;DHT22;25336;59.944;11.010;2023-12-28T07:15:44;-2.20;73.20
39655;DHT22;25336;59.944;11.010;2023-12-28T07:18:09;-2.20;73.40
39655;DHT22;25336;59.944;11.010;2023-12-28T07:20:35;-2.20;73.30
39655;DHT22;25336;59.944;11.010;2023-12-28T07:23:02;-2.10;73.70
39655;DHT22;25336;59.944;11.010;2023-12-28T07:25:28;-2.10;73.70
39655;DHT22;25336;59.944;11.010;2023-12-28T07:27:54;-1.30;74.00
39655;DHT22;25336;59.944;11.010;2023-12-28T07:30:20;-1.10;74.00
39655;DHT22;25336;59.944;11.010;2023-12-28T07:32:45;-2.00;73.60
39655;DHT22;25336;59.944;11.010;2023-12-28T07:35:11;-2.00;73.40
39655;DHT22;25336;59.944;11.010;2023-12-28T07:37:37;-1.40;73.60
39655;DHT22;25336;59.944;11.010;2023-12-28T07:40:03;-2.00;73.40
39655;DHT22;25336;59.944;11.010;2023-12-28T07:42:30;-1.90;73.30
39655;DHT22;25336;59.944;11.010;2023-12-28T07:44:55;-1.90;73.40
39655;DHT22;25336;59.944;11.010;2023-12-28T07:47:21;-1.90;73.60
39655;DHT22;25336;59.944;11.010;2023-12-28T07:49:47;-1.90;73.30
39655;DHT22;25336;59.944;11.010;2023-12-28T07:52:12;-1.90;73.30
39655;DHT22;25336;59.944;11.010;2023-12-28T07:54:38;-1.90;73.60
39655;DHT22;25336;59.944;11.010;2023-12-28T07:57:04;-1.90;73.60
39655;DHT22;25336;59.944;11.010;2023-12-28T07:59:30;-1.90;73.40
39655;DHT22;25336;59.944;11.010;2023-12-28T08:01:56;-1.80;73.40
39655;DHT22;25336;59.944;11.010;2023-12-28T08:04:22;-1.80;73.40
39655;DHT22;25336;59.944;11.010;2023-12-28T08:06:48;-0.80;74.00
39655;DHT22;25336;59.944;11.010;2023-12-28T08:09:14;-1.80;73.20
39655;DHT22;25336;59.944;11.010;2023-12-28T08:11:39;-1.80;73.20
39655;DHT22;25336;59.944;11.010;2023-12-28T08:14:05;-1.80;73.10
39655;DHT22;25336;59.944;11.010;2023-12-28T08:16:31;-1.80;73.20
39655;DHT22;25336;59.944;11.010;2023-12-28T08:18:57;-1.80;73.10
39655;DHT22;25336;59.944;11.010;2023-12-28T08:21:23;-1.80;73.10
39655;DHT22;25336;59.944;11.010;2023-12-28T08:23:49;-1.80;73.10
39655;DHT22;25336;59.944;11.010;2023-12-28T08:26:14;-1.80;73.20
39655;DHT22;25336;59.944;11.010;2023-12-28T08:28:40;-1.80;73.00
39655;DHT22;25336;59.944;11.010;2023-12-28T08:31:06;-1.70;73.10
39655;DHT22;25336;59.944;11.010;2023-12-28T08:33:34;-1.00;73.60
39655;DHT22;25336;59.944;11.010;2023-12-28T08:36:03;-1.80;73.20
39655;DHT22;25336;59.944;11.010;2023-12-28T08:38:29;-1.70;73.20
39655;DHT22;25336;59.944;11.010;2023-12-28T08:40:55;-1.70;73.20
39655;DHT22;25336;59.944;11.010;2023-12-28T08:43:20;-1.70;73.10
39655;DHT22;25336;59.944;11.010;2023-12-28T08:45:46;-1.70;73.20
39655;DHT22;25336;59.944;11.010;2023-12-28T08:48:12;-0.80;73.80
39655;DHT22;25336;59.944;11.010;2023-12-28T08:50:37;-1.70;73.20
39655;DHT22;25336;59.944;11.010;2023-12-28T08:53:03;-0.70;73.80
39655;DHT22;25336;59.944;11.010;2023-12-28T08:55:29;-1.70;73.10
39655;DHT22;25336;59.944;11.010;2023-12-28T08:57:55;-1.70;73.10
39655;DHT22;25336;59.944;11.010;2023-12-28T09:00:20;-1.60;73.20
39655;DHT22;25336;59.944;11.010;2023-12-28T09:02:46;-1.70;73.20
39655;DHT22;25336;59.944;11.010;2023-12-28T09:05:12;-1.60;73.20
39655;DHT22;25336;59.944;11.010;2023-12-28T09:07:38;-0.40;74.00
39655;DHT22;25336;59.944;11.010;2023-12-28T09:10:10;-1.60;73.20
39655;DHT22;25336;59.944;11.010;2023-12-28T09:12:35;-1.10;73.60
39655;DHT22;25336;59.944;11.010;2023-12-28T09:15:01;-1.60;73.30
39655;DHT22;25336;59.944;11.010;2023-12-28T09:17:27;-1.50;74.10
39655;DHT22;25336;59.944;11.010;2023-12-28T09:19:53;-1.50;73.40
39655;DHT22;25336;59.944;11.010;2023-12-28T09:22:18;-0.50;74.10
39655;DHT22;25336;59.944;11.010;2023-12-28T09:24:44;-0.50;74.10
39655;DHT22;25336;59.944;11.010;2023-12-28T09:27:10;-1.50;73.60
39655;DHT22;25336;59.944;11.010;2023-12-28T09:29:35;-1.40;73.70
39655;DHT22;25336;59.944;11.010;2023-12-28T09:32:01;-1.40;73.60
39655;DHT22;25336;59.944;11.010;2023-12-28T09:34:27;-0.80;73.90
39655;DHT22;25336;59.944;11.010;2023-12-28T09:36:52;-1.40;73.40
39655;DHT22;25336;59.944;11.010;2023-12-28T09:39:18;-0.80;73.70
39655;DHT22;25336;59.944;11.010;2023-12-28T09:41:51;-1.30;73.40
39655;DHT22;25336;59.944;11.010;2023-12-28T09:44:21;-1.30;73.40
39655;DHT22;25336;59.944;11.010;2023-12-28T09:46:48;-1.30;73.30
39655;DHT22;25336;59.944;11.010;2023-12-28T09:49:15;-1.30;73.20
39655;DHT22;25336;59.944;11.010;2023-12-28T09:51:41;-1.20;73.40
39655;DHT22;25336;59.944;11.010;2023-12-28T09:54:07;-1.20;73.50
39655;DHT22;25336;59.944;11.010;2023-12-28T09:56:33;-1.20;73.60
39655;DHT22;25336;59.944;11.010;2023-12-28T09:59:02;-1.10;73.70
39655;DHT22;25336;59.944;11.010;2023-12-28T10:01:29;-0.60;74.60
39655;DHT22;25336;59.944;11.010;2023-12-28T10:03:55;-0.60;73.70
39655;DHT22;25336;59.944;11.010;2023-12-28T10:06:21;-1.10;73.40
39655;DHT22;25336;59.944;11.010;2023-12-28T10:08:47;-0.20;73.90
39655;DHT22;25336;59.944;11.010;2023-12-28T10:11:18;-0.90;73.40
39655;DHT22;25336;59.944;11.010;2023-12-28T10:13:45;-0.30;73.70
39655;DHT22;25336;59.944;11.010;2023-12-28T10:16:12;-0.30;73.70
39655;DHT22;25336;59.944;11.010;2023-12-28T10:18:44;-0.40;73.60
39655;DHT22;25336;59.944;11.010;2023-12-28T10:21:11;-1.00;73.20
39655;DHT22;25336;59.944;11.010;2023-12-28T10:23:38;-1.00;73.20
39655;DHT22;25336;59.944;11.010;2023-12-28T10:26:04;-0.90;73.10
39655;DHT22;25336;59.944;11.010;2023-12-28T10:28:34;-0.10;73.60
39655;DHT22;25336;59.944;11.010;2023-12-28T10:31:01;-0.90;73.10
39655;DHT22;25336;59.944;11.010;2023-12-28T10:33:27;-0.90;73.10
39655;DHT22;25336;59.944;11.010;2023-12-28T10:35:55;-0.90;73.10
39655;DHT22;25336;59.944;11.010;2023-12-28T10:38:23;-0.90;73.00
39655;DHT22;25336;59.944;11.010;2023-12-28T10:40:51;-0.90;73.10
39655;DHT22;25336;59.944;11.010;2023-12-28T10:43:19;-0.80;73.10
39655;DHT22;25336;59.944;11.010;2023-12-28T10:45:50;-0.80;73.00
39655;DHT22;25336;59.944;11.010;2023-12-28T10:48:28;-0.20;73.40
39655;DHT22;25336;59.944;11.010;2023-12-28T10:50:57;-0.80;73.00
39655;DHT22;25336;59.944;11.010;2023-12-28T10:53:51;0.20;73.60
39655;DHT22;25336;59.944;11.010;2023-12-28T10:59:35;-0.70;73.10
39655;DHT22;25336;59.944;11.010;2023-12-28T11:02:06;-0.70;73.10
39655;DHT22;25336;59.944;11.010;2023-12-28T11:04:47;-0.70;72.90
39655;DHT22;25336;59.944;11.010;2023-12-28T11:07:17;-0.70;72.90
39655;DHT22;25336;59.944;11.010;2023-12-28T11:09:43;-0.60;73.00
39655;DHT22;25336;59.944;11.010;2023-12-28T11:12:11;0.40;73.60
39655;DHT22;25336;59.944;11.010;2023-12-28T11:14:40;-0.60;72.80
39655;DHT22;25336;59.944;11.010;2023-12-28T11:17:06;-0.50;73.00
39655;DHT22;25336;59.944;11.010;2023-12-28T11:19:32;0.70;73.70
39655;DHT22;25336;59.944;11.010;2023-12-28T11:22:01;0.20;73.20
39655;DHT22;25336;59.944;11.010;2023-12-28T11:24:28;-0.40;72.80
39655;DHT22;25336;59.944;11.010;2023-12-28T11:26:55;-0.40;72.80
39655;DHT22;25336;59.944;11.010;2023-12-28T11:29:21;0.30;73.20
39655;DHT22;25336;59.944;11.010;2023-12-28T11:31:53;0.40;73.30
39655;DHT22;25336;59.944;11.010;2023-12-28T11:34:33;-0.40;72.70
39655;DHT22;25336;59.944;11.010;2023-12-28T11:37:12;-0.30;72.60
39655;DHT22;25336;59.944;11.010;2023-12-28T11:39:41;0.20;72.80
39655;DHT22;25336;59.944;11.010;2023-12-28T11:42:10;-0.30;72.30
39655;DHT22;25336;59.944;11.010;2023-12-28T11:44:39;-0.30;72.30
39655;DHT22;25336;59.944;11.010;2023-12-28T11:47:24;-0.30;72.20
39655;DHT22;25336;59.944;11.010;2023-12-28T11:49:51;0.20;72.30
39655;DHT22;25336;59.944;11.010;2023-12-28T11:52:28;0.80;72.80
39655;DHT22;25336;59.944;11.010;2023-12-28T11:54:55;-0.30;71.90
39655;DHT22;25336;59.944;11.010;2023-12-28T11:57:21;-0.30;71.80
39655;DHT22;25336;59.944;11.010;2023-12-28T11:59:52;-0.40;71.60
39655;DHT22;25336;59.944;11.010;2023-12-28T12:02:18;0.00;72.00
39655;DHT22;25336;59.944;11.010;2023-12-28T12:04:44;-0.40;71.70
39655;DHT22;25336;59.944;11.010;2023-12-28T12:07:10;0.60;72.40
39655;DHT22;25336;59.944;11.010;2023-12-28T12:09:35;-0.30;71.80
39655;DHT22;25336;59.944;11.010;2023-12-28T12:12:02;0.10;72.10
39655;DHT22;25336;59.944;11.010;2023-12-28T12:14:29;-0.40;71.70
39655;DHT22;25336;59.944;11.010;2023-12-28T12:16:57;-0.40;71.60
39655;DHT22;25336;59.944;11.010;2023-12-28T12:19:25;0.30;71.80
39655;DHT22;25336;59.944;11.010;2023-12-28T12:21:57;0.10;71.70
39655;DHT22;25336;59.944;11.010;2023-12-28T12:24:24;-0.40;71.30
39655;DHT22;25336;59.944;11.010;2023-12-28T12:26:53;-0.40;71.30
39655;DHT22;25336;59.944;11.010;2023-12-28T12:29:19;-0.40;71.30
39655;DHT22;25336;59.944;11.010;2023-12-28T12:31:46;-0.40;71.30
39655;DHT22;25336;59.944;11.010;2023-12-28T12:34:16;0.30;71.70
39655;DHT22;25336;59.944;11.010;2023-12-28T12:36:42;0.00;71.50
39655;DHT22;25336;59.944;11.010;2023-12-28T12:39:11;-1.30;70.60
39655;DHT22;25336;59.944;11.010;2023-12-28T12:41:37;-0.10;71.30
39655;DHT22;25336;59.944;11.010;2023-12-28T12:44:04;-0.50;71.00
39655;DHT22;25336;59.944;11.010;2023-12-28T12:46:31;-0.50;71.00
39655;DHT22;25336;59.944;11.010;2023-12-28T12:48:57;-0.50;70.90
39655;DHT22;25336;59.944;11.010;2023-12-28T12:51:24;-0.60;70.80
39655;DHT22;25336;59.944;11.010;2023-12-28T12:53:50;-0.60;70.80
39655;DHT22;25336;59.944;11.010;2023-12-28T12:56:20;-0.60;70.90
39655;DHT22;25336;59.944;11.010;2023-12-28T12:58:46;-0.60;70.90
39655;DHT22;25336;59.944;11.010;2023-12-28T13:01:13;-0.10;71.30
39655;DHT22;25336;59.944;11.010;2023-12-28T13:03:40;0.30;71.60
39655;DHT22;25336;59.944;11.010;2023-12-28T13:06:06;-0.60;71.20
39655;DHT22;25336;59.944;11.010;2023-12-28T13:08:31;0.20;71.80
39655;DHT22;25336;59.944;11.010;2023-12-28T13:10:57;-0.30;71.60
39655;DHT22;25336;59.944;11.010;2023-12-28T13:13:23;-0.60;71.40
39655;DHT22;25336;59.944;11.010;2023-12-28T13:15:48;-0.60;71.60
39655;DHT22;25336;59.944;11.010;2023-12-28T13:18:14;-0.60;71.50
39655;DHT22;25336;59.944;11.010;2023-12-28T13:20:40;0.20;72.00
39655;DHT22;25336;59.944;11.010;2023-12-28T13:23:05;-0.60;71.40
39655;DHT22;25336;59.944;11.010;2023-12-28T13:25:31;0.40;71.90
39655;DHT22;25336;59.944;11.010;2023-12-28T13:27:57;0.40;71.90
39655;DHT22;25336;59.944;11.010;2023-12-28T13:30:23;-0.50;71.30
39655;DHT22;25336;59.944;11.010;2023-12-28T13:32:51;0.50;71.90
39655;DHT22;25336;59.944;11.010;2023-12-28T13:35:18;-0.50;71.30
39655;DHT22;25336;59.944;11.010;2023-12-28T13:37:43;-0.50;71.10
39655;DHT22;25336;59.944;11.010;2023-12-28T13:40:09;-0.30;71.30
39655;DHT22;25336;59.944;11.010;2023-12-28T13:42:35;-0.50;71.10
39655;DHT22;25336;59.944;11.010;2023-12-28T13:45:01;-0.50;71.10
39655;DHT22;25336;59.944;11.010;2023-12-28T13:47:28;-0.50;71.10
39655;DHT22;25336;59.944;11.010;2023-12-28T13:49:53;-0.50;71.10
39655;DHT22;25336;59.944;11.010;2023-12-28T13:52:20;-0.10;71.40
39655;DHT22;25336;59.944;11.010;2023-12-28T13:54:45;-0.50;71.10
39655;DHT22;25336;59.944;11.010;2023-12-28T13:57:11;-0.50;71.10
39655;DHT22;25336;59.944;11.010;2023-12-28T13:59:37;-0.10;71.40
39655;DHT22;25336;59.944;11.010;2023-12-28T14:02:03;0.00;71.30
39655;DHT22;25336;59.944;11.010;2023-12-28T14:04:29;-0.50;71.00
39655;DHT22;25336;59.944;11.010;2023-12-28T14:06:55;-0.40;71.10
39655;DHT22;25336;59.944;11.010;2023-12-28T14:09:21;-0.30;71.00
39655;DHT22;25336;59.944;11.010;2023-12-28T14:11:47;-0.30;70.90
39655;DHT22;25336;59.944;11.010;2023-12-28T14:14:14;0.40;71.20
39655;DHT22;25336;59.944;11.010;2023-12-28T14:16:40;-0.50;70.50
39655;DHT22;25336;59.944;11.010;2023-12-28T14:19:06;-0.20;70.50
39655;DHT22;25336;59.944;11.010;2023-12-28T14:21:36;0.10;70.70
39655;DHT22;25336;59.944;11.010;2023-12-28T14:24:02;-0.50;70.20
39655;DHT22;25336;59.944;11.010;2023-12-28T14:26:31;-0.50;70.10
39655;DHT22;25336;59.944;11.010;2023-12-28T14:28:58;0.40;70.50
39655;DHT22;25336;59.944;11.010;2023-12-28T14:31:25;-0.60;69.90
39655;DHT22;25336;59.944;11.010;2023-12-28T14:33:52;-0.60;69.80
39655;DHT22;25336;59.944;11.010;2023-12-28T14:36:35;-0.70;69.60
39655;DHT22;25336;59.944;11.010;2023-12-28T14:39:04;-0.70;69.40
39655;DHT22;25336;59.944;11.010;2023-12-28T14:41:36;0.20;70.10
39655;DHT22;25336;59.944;11.010;2023-12-28T14:44:03;-0.80;69.30
39655;DHT22;25336;59.944;11.010;2023-12-28T14:46:29;-0.80;69.30
39655;DHT22;25336;59.944;11.010;2023-12-28T14:48:55;-0.10;69.80
39655;DHT22;25336;59.944;11.010;2023-12-28T14:51:21;-0.90;69.30
39655;DHT22;25336;59.944;11.010;2023-12-28T14:53:47;-1.00;69.40
39655;DHT22;25336;59.944;11.010;2023-12-28T14:56:13;-1.00;69.60
39655;DHT22;25336;59.944;11.010;2023-12-28T14:58:39;-1.10;69.50
39655;DHT22;25336;59.944;11.010;2023-12-28T15:01:06;-0.30;70.10
39655;DHT22;25336;59.944;11.010;2023-12-28T15:03:31;-1.20;69.60
39655;DHT22;25336;59.944;11.010;2023-12-28T15:05:57;-1.20;69.70
39655;DHT22;25336;59.944;11.010;2023-12-28T15:08:26;-0.70;70.00
39655;DHT22;25336;59.944;11.010;2023-12-28T15:10:52;-1.30;69.70
39655;DHT22;25336;59.944;11.010;2023-12-28T15:13:18;-1.30;69.70
39655;DHT22;25336;59.944;11.010;2023-12-28T15:15:44;-1.30;69.70
39655;DHT22;25336;59.944;11.010;2023-12-28T15:18:10;-1.40;69.70
39655;DHT22;25336;59.944;11.010;2023-12-28T15:20:37;-1.40;69.70